AirNav   Air Wisconsin Up To $57,000 Bonus
 
 1062 users online  

07MI Scott Airstrip
Lake, Michigan, USA

GOING TO LAKE?


FAA INFORMATION EFFECTIVE 22 APRIL 2021

Location

FAA Identifier: 07MI
Lat/Long: 43-51-51.0810N 085-01-26.1080W
43-51.851350N 085-01.435133W
43.8641892,-85.0239189
(estimated)
Elevation: 1065 ft. / 325 m (estimated)
Variation: 04W (1980)
From city: 1 mile NW of LAKE, MI
Time zone: UTC -4 (UTC -5 during Standard Time)
Zip code: 48632

Airport Operations

Airport use: Private use. Permission required prior to landing
Activation date: 10/1986
Control tower: no
ARTCC: MINNEAPOLIS CENTER
FSS: LANSING FLIGHT SERVICE STATION
Attendance: DAYLIGHT HOURS
Wind indicator: yes
Segmented circle: yes

Airport Communications

WX AWOS-3 at MOP (19 nm SE): 133.025 (989-773-2885)

Nearby radio navigation aids

VOR radial/distance  VOR name  Freq  Var
MOPr324/19.1MOUNT PLEASANT VOR/DME110.6005W
HICr061/34.7WHITE CLOUD VOR/DME117.6001W

Airport Services

Runway Information

Runway 9/27

Dimensions: 2450 x 100 ft. / 747 x 30 m
Surface: turf
Runway edge markings: 09/27 REFLECTORS EACH SIDE; BOTH DIRECTIONS.
RUNWAY 9  RUNWAY 27
Traffic pattern: leftleft
Obstructions: 50 ft. trees, 300 ft. from runwaynone

Airport Ownership and Management from official FAA records

Ownership: Privately-owned
Manager: RUSS HEFFRON
8505 SHORT STREET
LAKE, MI 48632
Phone 989-339-5290

Airport Operational Statistics

Aircraft based on the field: 1
Single engine airplanes: 1
    

Additional Remarks

OWNER REQUESTS FAA FORM 5010-2 SENT TO APT MGR.
FOR CD CTC MINNEAPOLIS ARTCC AT 651-463-5588.

Instrument Procedures

There are no published instrument procedures at 07MI.

Some nearby airports with instrument procedures:

48D - Clare Municipal Airport (12 nm E)
KMOP - Mount Pleasant Municipal Airport (19 nm SE)
KRQB - Roben-Hood Airport (22 nm W)
KGDW - Gladwin Zettel Memorial Airport (25 nm E)
13C - Lakeview Airport-Griffith Field (27 nm SW)
 
Loc | Ops | Rwys | IFR | FBO | Links
Com | Nav | Svcs | Stats | Notes
Area around 07MI (Scott Airstrip)
 
Road maps at: MapQuest Bing Google
 
Aerial photo
No photo
 
Sectional chart

 
Airport distance calculator
Flying to Scott Airstrip? Find the distance to fly.

From to 07MI

Sunrise and sunset
Times for 16-May-2021
 Local
(UTC-4)
 Zulu
(UTC)
Morning civil twilight05:4109:41
Sunrise06:1410:14
Sunset20:5900:59
Evening civil twilight21:3201:32

Current date and time
Zulu (UTC)  17-May-2021 00:10:29
Local (UTC-4)  16-May-2021 20:10:29
 
METAR
KMOP 
19nm SE 
162355Z AUTO 19003KT 10SM OVC090 19/09 A3017 RMK AO2 T01870085 10198 20171
KRQB 
22nm SW 
162355Z AUTO 00000KT 10SM SCT080 16/09 A3016 RMK AO2 T01620090 10170 20151
KCAD 
29nm NW 
162355Z AUTO 18005KT 10SM SCT044 BKN050 OVC075 17/09 A3016 RMK AO2 T01700087 10182 20155
KHTL 
33nm NE 
162353Z AUTO 18006KT 10SM SCT080 17/08 A3017 RMK AO2 SLP220 T01670083 10189 20156 56006
KIKW 
35nm E 
162355Z AUTO 00000KT 10SM OVC090 19/10 A3017 RMK AO2 T01850098 10200 20174
KAMN 
36nm SE 
170000Z AUTO 00000KT 10SM BKN090 18/10 A3018 RMK AO2 T01770100
TAF
KMBS 
45nm SE 
161720Z 1618/1718 17006KT P6SM BKN100 TEMPO 1618/1619 OVC070 FM162000 17008KT P6SM SCT060 SCT120 FM170000 17006KT P6SM SCT200
NOTAMs
Click for the latest NOTAMs
NOTAMs are issued by the DoD/FAA and will open in a separate window not controlled by AirNav.

 

 
 

Would you like to see your business listed on this page?

 If your business provides an interesting product or service to pilots, flight crews, aircraft, or users of the Scott Airstrip, you should consider listing it here.  To start the listing process, click on the button below
 
Add a business
 

Other Pages about Scott Airstrip

Update a link
 
Copyright © AirNav, LLC. All rights reserved. Privacy Policy  Contact